Time;durP1;ratioP1;P1;durP2;ratioP2;P2;SDS_P1;SDS_P2;PMS_P1;PMS_P2;Temp;Humidity;BMP_temperature;BMP_pressure;BME280_temperature;BME280_humidity;BME280_pressure;Samples;Min_cycle;Max_cycle;Signal;HPM_P1;HPM_P2
2023/04/20 00:02:04;;;;;;;116.30;105.27;;;3.00;40.10;;;;;;5034315;28;20577;-72
2023/04/20 00:04:29;;;;;;;160.53;148.10;;;3.00;41.40;;;;;;5034609;28;20501;-72
2023/04/20 00:06:55;;;;;;;136.30;124.80;;;3.00;41.50;;;;;;5034431;28;20214;-71
2023/04/20 00:09:21;;;;;;;119.57;108.67;;;3.00;41.50;;;;;;5033086;28;20189;-72
2023/04/20 00:11:47;;;;;;;156.97;144.67;;;2.90;41.50;;;;;;5034416;28;20412;-72
2023/04/20 00:14:14;;;;;;;124.23;112.67;;;2.90;41.40;;;;;;5032946;28;20942;-71
2023/04/20 00:16:40;;;;;;;127.80;116.30;;;2.90;41.40;;;;;;5034192;28;20436;-71
2023/04/20 00:19:06;;;;;;;114.50;103.70;;;2.80;42.80;;;;;;5034359;28;20200;-71
2023/04/20 00:21:32;;;;;;;151.77;139.30;;;2.80;43.30;;;;;;5034079;28;20201;-71
2023/04/20 00:23:58;;;;;;;116.33;105.07;;;2.80;43.20;;;;;;5034049;28;20557;-71
2023/04/20 00:26:24;;;;;;;145.30;133.43;;;2.70;43.30;;;;;;5033852;28;20491;-71
2023/04/20 00:28:50;;;;;;;123.15;111.97;;;2.70;43.70;;;;;;5034287;28;20661;-71
2023/04/20 00:31:17;;;;;;;104.22;93.80;;;2.70;45.00;;;;;;5033912;28;20195;-71
2023/04/20 00:33:42;;;;;;;215.65;201.00;;;2.60;46.20;;;;;;5033911;28;20220;-71
2023/04/20 00:36:08;;;;;;;124.17;112.70;;;2.70;44.50;;;;;;5033760;28;20205;-71
2023/04/20 00:38:34;;;;;;;185.75;172.32;;;2.70;44.60;;;;;;5033688;28;20173;-72
2023/04/20 00:41:00;;;;;;;145.33;132.87;;;2.70;43.60;;;;;;5033738;28;20258;-72
2023/04/20 00:43:25;;;;;;;173.20;159.97;;;2.60;44.10;;;;;;5033436;28;20441;-72
2023/04/20 00:45:51;;;;;;;129.40;117.77;;;2.50;43.40;;;;;;5033453;28;20184;-72
2023/04/20 00:48:17;;;;;;;125.80;114.47;;;2.50;44.70;;;;;;5033496;28;20199;-72
2023/04/20 00:50:46;;;;;;;135.35;123.30;;;2.40;45.00;;;;;;5033498;28;20262;-72
2023/04/20 00:53:12;;;;;;;107.60;96.78;;;2.40;44.60;;;;;;5032036;28;20215;-72
2023/04/20 00:55:38;;;;;;;129.10;117.33;;;2.40;43.90;;;;;;5033529;28;20204;-72
2023/04/20 00:58:05;;;;;;;139.73;127.93;;;2.40;43.50;;;;;;5033337;28;20514;-72
2023/04/20 01:00:31;;;;;;;120.00;108.35;;;2.30;44.50;;;;;;5032563;28;20173;-71
2023/04/20 01:02:57;;;;;;;115.07;103.78;;;2.30;45.10;;;;;;5033097;28;20351;-72
2023/04/20 01:05:22;;;;;;;150.03;138.03;;;2.30;45.60;;;;;;5031965;28;20187;-72
2023/04/20 01:07:48;;;;;;;121.10;109.50;;;2.20;45.40;;;;;;5033122;28;20235;-72
2023/04/20 01:10:14;;;;;;;147.73;135.10;;;2.20;45.80;;;;;;5033375;28;20227;-72
2023/04/20 01:12:41;;;;;;;120.43;108.83;;;2.10;45.00;;;;;;5032905;28;20399;-73
2023/04/20 01:15:07;;;;;;;174.43;161.10;;;2.00;46.40;;;;;;5033103;28;20181;-72
2023/04/20 01:17:35;;;;;;;133.73;121.90;;;2.00;45.70;;;;;;5032991;28;20257;-72
2023/04/20 01:20:01;;;;;;;125.78;114.28;;;2.10;45.80;;;;;;5033178;28;20533;-72
2023/04/20 01:22:26;;;;;;;113.97;103.03;;;2.00;45.70;;;;;;5032667;28;20223;-72
2023/04/20 01:24:53;;;;;;;132.63;120.70;;;2.00;45.70;;;;;;5033182;28;20572;-72
2023/04/20 01:27:18;;;;;;;128.55;116.78;;;1.90;45.60;;;;;;5032740;28;20205;-72
2023/04/20 01:29:45;;;;;;;151.77;139.53;;;1.90;45.60;;;;;;5032943;28;20179;-72
2023/04/20 01:32:17;;;;;;;147.48;135.13;;;1.80;46.60;;;;;;5032744;28;20518;-72
2023/04/20 01:34:43;;;;;;;146.40;134.40;;;1.80;46.40;;;;;;5032927;28;20175;-72
2023/04/20 01:37:09;;;;;;;151.80;139.50;;;1.80;46.20;;;;;;5032678;28;20215;-72
2023/04/20 01:39:38;;;;;;;139.67;127.67;;;1.80;46.40;;;;;;5032760;28;20175;-72
2023/04/20 01:42:05;;;;;;;149.18;137.13;;;1.80;47.10;;;;;;5031295;28;20183;-72
2023/04/20 01:44:30;;;;;;;141.18;129.15;;;1.70;46.40;;;;;;5032527;28;20180;-73
2023/04/20 01:46:56;;;;;;;153.57;140.87;;;1.70;47.80;;;;;;5032515;28;20696;-72
2023/04/20 01:49:22;;;;;;;114.80;103.40;;;1.70;47.40;;;;;;5032514;28;20187;-72
2023/04/20 01:51:47;;;;;;;162.60;149.40;;;1.70;47.30;;;;;;5031158;28;20635;-72
2023/04/20 01:54:13;;;;;;;143.97;131.27;;;1.60;46.90;;;;;;5032803;28;20753;-72
2023/04/20 01:56:38;;;;;;;133.63;121.50;;;1.60;47.80;;;;;;5032792;28;20199;-72
2023/04/20 01:59:04;;;;;;;140.53;128.50;;;1.60;48.20;;;;;;5032344;28;20176;-70
2023/04/20 02:01:30;;;;;;;160.57;147.83;;;1.60;47.50;;;;;;5032056;28;20171;-71
2023/04/20 02:03:55;;;;;;;148.50;135.97;;;1.50;47.60;;;;;;5032178;28;20486;-69
2023/04/20 02:06:21;;;;;;;190.43;175.50;;;1.50;47.60;;;;;;5032578;28;20807;-69
2023/04/20 02:08:46;;;;;;;240.20;222.63;;;1.50;47.70;;;;;;5032776;28;20282;-70
2023/04/20 02:11:12;;;;;;;137.80;125.83;;;1.40;48.60;;;;;;5032084;28;20171;-70
2023/04/20 02:13:37;;;;;;;167.43;153.67;;;1.50;49.00;;;;;;5031353;28;20194;-71
2023/04/20 02:16:03;;;;;;;145.03;132.50;;;1.40;48.80;;;;;;5032166;28;20246;-70
2023/04/20 02:18:31;;;;;;;171.47;158.13;;;1.40;49.10;;;;;;5031956;28;20172;-71
2023/04/20 02:20:57;;;;;;;159.57;146.80;;;1.40;48.80;;;;;;5032040;28;20516;-70
2023/04/20 02:23:23;;;;;;;145.05;132.80;;;1.40;49.10;;;;;;5031871;28;20168;-70
2023/04/20 02:25:49;;;;;;;143.70;131.23;;;1.40;48.80;;;;;;5031754;28;20183;-71
2023/04/20 02:28:14;;;;;;;151.10;138.43;;;1.40;48.40;;;;;;5031900;28;20191;-72
2023/04/20 02:30:40;;;;;;;112.80;101.00;;;1.40;49.60;;;;;;5031832;28;20569;-72
2023/04/20 02:33:06;;;;;;;163.73;150.53;;;1.40;49.60;;;;;;5031513;28;20178;-71
2023/04/20 02:35:31;;;;;;;135.63;123.13;;;1.40;49.80;;;;;;5031908;28;20169;-72
2023/04/20 02:37:57;;;;;;;134.87;122.53;;;1.40;49.50;;;;;;5031572;28;20206;-72
2023/04/20 02:40:22;;;;;;;144.20;131.57;;;1.50;49.60;;;;;;5030460;28;20207;-71
2023/04/20 02:42:48;;;;;;;139.10;126.97;;;1.50;49.10;;;;;;5031511;28;20688;-72
2023/04/20 02:45:14;;;;;;;110.17;98.70;;;1.40;48.50;;;;;;5031776;28;20171;-72
2023/04/20 02:47:40;;;;;;;117.23;105.47;;;1.40;49.30;;;;;;5031522;28;20215;-71
2023/04/20 02:50:06;;;;;;;129.57;117.50;;;1.40;49.30;;;;;;5031732;28;20171;-71
2023/04/20 02:52:32;;;;;;;127.53;115.77;;;1.30;48.30;;;;;;5031733;28;20195;-71
2023/04/20 02:54:57;;;;;;;156.40;143.33;;;1.30;48.70;;;;;;5031972;28;20501;-70
2023/04/20 02:57:24;;;;;;;113.20;101.47;;;1.30;48.90;;;;;;5031968;28;20214;-71
2023/04/20 02:59:49;;;;;;;145.43;132.52;;;1.30;49.50;;;;;;5031995;28;20585;-71
2023/04/20 03:02:17;;;;;;;110.97;99.67;;;1.30;48.70;;;;;;5031354;28;20184;-72
2023/04/20 03:04:43;;;;;;;112.63;100.93;;;1.30;49.70;;;;;;5030327;28;20661;-72
2023/04/20 03:07:11;;;;;;;146.70;133.90;;;1.30;49.00;;;;;;5031738;28;20238;-72
2023/04/20 03:09:37;;;;;;;129.52;117.78;;;1.20;48.20;;;;;;5031476;28;20257;-72
2023/04/20 03:12:04;;;;;;;133.57;121.23;;;1.20;49.40;;;;;;5031229;28;20610;-72
2023/04/20 03:14:29;;;;;;;128.20;116.22;;;1.20;49.90;;;;;;5031511;28;20238;-72
2023/04/20 03:16:56;;;;;;;151.27;138.03;;;;;;;;;;5031539;28;20676;-71
2023/04/20 03:19:21;;;;;;;150.52;137.57;;;1.20;50.80;;;;;;5031325;28;20414;-71
2023/04/20 03:21:47;;;;;;;122.10;110.23;;;1.40;51.80;;;;;;5031314;28;20182;-71
2023/04/20 03:24:13;;;;;;;132.80;120.13;;;1.50;52.30;;;;;;5033299;28;20183;-71
2023/04/20 03:26:38;;;;;;;150.90;137.27;;;1.60;52.50;;;;;;5035203;28;20203;-70
2023/04/20 03:29:04;;;;;;;138.37;125.53;;;1.70;52.70;;;;;;5035250;28;20413;-70
2023/04/20 03:31:29;;;;;;;142.63;129.70;;;1.70;52.60;;;;;;5035166;28;20171;-71
2023/04/20 03:33:55;;;;;;;140.40;127.63;;;1.80;53.10;;;;;;5035145;28;20170;-71
2023/04/20 03:36:21;;;;;;;119.33;107.43;;;1.90;52.60;;;;;;5034917;28;20208;-72
2023/04/20 03:38:46;;;;;;;114.00;102.37;;;2.00;52.90;;;;;;5033808;28;20662;-72
2023/04/20 03:41:13;;;;;;;125.30;112.63;;;2.00;53.00;;;;;;5033473;28;20655;-72
2023/04/20 03:43:40;;;;;;;127.78;115.38;;;2.10;52.30;;;;;;5035197;28;20172;-71
2023/04/20 03:46:06;;;;;;;120.38;108.32;;;2.10;53.20;;;;;;5034649;28;20199;-72
2023/04/20 03:48:32;;;;;;;156.93;144.13;;;2.20;53.30;;;;;;5034738;28;20213;-71
2023/04/20 03:50:57;;;;;;;163.00;149.55;;;2.30;51.70;;;;;;5034628;28;20180;-71
2023/04/20 03:53:23;;;;;;;138.80;126.20;;;2.30;51.80;;;;;;5032967;28;20174;-69
2023/04/20 03:55:49;;;;;;;126.13;113.83;;;2.40;52.70;;;;;;5034635;28;20240;-71
2023/04/20 03:58:16;;;;;;;170.15;156.00;;;2.40;52.30;;;;;;5034450;28;20179;-69
2023/04/20 04:00:41;;;;;;;130.20;117.93;;;2.50;51.80;;;;;;5034479;28;20180;-71
2023/04/20 04:03:07;;;;;;;137.10;124.57;;;2.40;52.90;;;;;;5032683;28;20650;-69
2023/04/20 04:05:32;;;;;;;170.20;156.60;;;2.60;52.40;;;;;;5034756;28;20182;-70
2023/04/20 04:07:58;;;;;;;156.93;143.17;;;2.60;50.70;;;;;;5033947;28;20220;-70
2023/04/20 04:10:23;;;;;;;147.90;134.77;;;2.60;49.50;;;;;;5032931;28;20180;-70
2023/04/20 04:12:49;;;;;;;143.50;130.87;;;2.50;49.60;;;;;;5034045;28;20175;-70
2023/04/20 04:15:15;;;;;;;143.30;130.40;;;2.60;49.30;;;;;;5034079;28;20174;-70
2023/04/20 04:17:40;;;;;;;160.20;146.70;;;2.50;48.80;;;;;;5034170;28;20254;-70
2023/04/20 04:20:07;;;;;;;239.23;222.23;;;2.50;49.50;;;;;;5034141;28;20650;-71
2023/04/20 04:22:33;;;;;;;131.80;119.47;;;2.50;49.20;;;;;;5034093;28;20205;-71
2023/04/20 04:24:59;;;;;;;172.90;158.97;;;2.50;49.50;;;;;;5034296;28;20249;-71
2023/04/20 04:27:24;;;;;;;141.10;128.40;;;2.50;47.80;;;;;;5033918;28;20313;-71
2023/04/20 04:29:53;;;;;;;144.77;131.90;;;2.50;48.70;;;;;;5034027;28;20443;-71
2023/04/20 04:32:18;;;;;;;112.05;99.30;;;2.50;48.10;;;;;;5033948;28;20176;-71
2023/04/20 04:34:44;;;;;;;146.47;133.80;;;2.40;47.90;;;;;;5031981;28;20181;-70
2023/04/20 04:37:10;;;;;;;112.40;100.70;;;2.40;46.80;;;;;;5032555;28;20221;-71
2023/04/20 04:39:36;;;;;;;179.07;165.23;;;2.40;46.00;;;;;;5032411;28;20192;-71
2023/04/20 04:42:02;;;;;;;126.17;114.07;;;2.30;46.00;;;;;;5033655;28;20179;-70
2023/04/20 04:44:30;;;;;;;118.77;106.63;;;2.20;47.40;;;;;;5033818;28;20183;-70
2023/04/20 04:46:56;;;;;;;149.07;135.68;;;2.20;46.80;;;;;;5033960;28;20238;-70
2023/04/20 04:49:23;;;;;;;149.75;137.18;;;2.20;47.70;;;;;;5034088;28;20202;-70
2023/04/20 04:51:49;;;;;;;125.85;113.80;;;2.20;47.50;;;;;;5032082;28;20175;-70
2023/04/20 04:54:15;;;;;;;139.40;126.60;;;2.30;46.90;;;;;;5033669;28;20214;-70
2023/04/20 04:56:40;;;;;;;161.17;147.67;;;2.20;46.80;;;;;;5032325;28;20453;-72
2023/04/20 04:59:06;;;;;;;147.90;135.00;;;2.20;47.70;;;;;;5033602;28;20186;-70
2023/04/20 05:01:31;;;;;;;124.37;112.43;;;2.20;47.70;;;;;;5031945;28;20665;-70
2023/04/20 05:03:57;;;;;;;157.70;143.93;;;2.20;48.00;;;;;;5033424;28;20176;-70
2023/04/20 05:06:22;;;;;;;131.67;119.33;;;2.20;47.30;;;;;;5033198;28;20817;-70
2023/04/20 05:08:51;;;;;;;132.37;119.73;;;2.20;47.90;;;;;;5033651;28;20217;-71
2023/04/20 05:11:16;;;;;;;142.13;130.02;;;2.20;47.10;;;;;;5033317;28;20242;-71
2023/04/20 05:13:42;;;;;;;129.67;116.77;;;2.20;47.80;;;;;;5033647;28;20231;-71
2023/04/20 05:16:07;;;;;;;137.77;125.00;;;2.20;48.70;;;;;;5033417;28;20179;-71
2023/04/20 05:18:33;;;;;;;135.63;123.20;;;2.30;49.30;;;;;;5033248;28;20231;-73
2023/04/20 05:20:59;;;;;;;153.47;140.00;;;2.40;48.70;;;;;;5033050;28;20701;-72
2023/04/20 05:23:24;;;;;;;134.70;122.37;;;2.50;48.50;;;;;;5032747;28;20168;-71
2023/04/20 05:25:53;;;;;;;130.73;117.93;;;2.70;49.20;;;;;;5032990;28;20407;-72
2023/04/20 05:28:18;;;;;;;155.65;142.25;;;2.90;48.30;;;;;;5033295;28;20322;-72
2023/04/20 05:30:46;;;;;;;160.63;146.93;;;3.10;49.20;;;;;;5033316;28;20190;-72
2023/04/20 05:33:12;;;;;;;142.07;129.45;;;3.20;45.20;;;;;;5032673;28;20181;-72
2023/04/20 05:35:39;;;;;;;150.93;137.30;;;;;;;;;;5032792;28;20640;-72
2023/04/20 05:38:05;;;;;;;144.52;131.65;;;;;;;;;;5032563;28;20217;-70
2023/04/20 05:40:33;;;;;;;132.10;119.60;;;;;;;;;;5031262;28;20221;-71
2023/04/20 05:42:59;;;;;;;150.68;137.23;;;3.40;44.30;;;;;;5032439;28;20178;-72
2023/04/20 05:45:25;;;;;;;163.10;149.48;;;3.70;45.00;;;;;;5032604;28;20173;-71
2023/04/20 05:47:55;;;;;;;182.23;166.70;;;3.70;41.20;;;;;;5016165;28;20582;-71
2023/04/20 05:50:24;;;;;;;149.15;136.05;;;3.50;42.00;;;;;;5012547;28;20186;-71
2023/04/20 05:52:50;;;;;;;136.40;123.75;;;3.70;43.60;;;;;;5025562;28;20645;-71
2023/04/20 05:55:17;;;;;;;131.90;119.68;;;3.90;43.60;;;;;;5011245;28;20185;-72
2023/04/20 05:57:42;;;;;;;166.77;152.73;;;4.00;39.40;;;;;;5011288;28;20207;-71
2023/04/20 06:00:11;;;;;;;118.17;106.13;;;4.10;39.10;;;;;;5013058;28;20176;-71
2023/04/20 06:02:36;;;;;;;149.10;136.40;;;4.30;37.50;;;;;;5012182;28;20181;-71
2023/04/20 06:05:02;;;;;;;166.07;152.67;;;4.50;37.70;;;;;;5012307;28;20183;-72
2023/04/20 06:07:27;;;;;;;174.17;160.47;;;4.60;35.30;;;;;;5012198;28;20263;-71
2023/04/20 06:09:53;;;;;;;247.57;230.17;;;4.60;34.20;;;;;;5012267;28;20221;-71
2023/04/20 06:12:19;;;;;;;163.40;149.80;;;4.70;30.60;;;;;;5012274;28;20175;-71
2023/04/20 06:14:44;;;;;;;297.37;276.93;;;4.60;28.60;;;;;;5012331;28;20632;-72
2023/04/20 06:17:10;;;;;;;119.27;107.37;;;4.40;29.50;;;;;;5012310;28;20564;-71
2023/04/20 06:19:35;;;;;;;138.50;126.37;;;4.40;29.90;;;;;;5012168;28;20181;-71
2023/04/20 06:22:08;;;;;;;161.27;148.03;;;4.70;31.40;;;;;;5011923;28;20180;-71
2023/04/20 06:24:34;;;;;;;196.83;181.87;;;5.30;29.10;;;;;;5011980;28;20267;-71
2023/04/20 06:27:00;;;;;;;142.73;130.00;;;5.70;25.40;;;;;;5012288;28;20457;-71
2023/04/20 06:29:26;;;;;;;110.37;99.30;;;5.70;23.00;;;;;;5012681;28;20880;-71
2023/04/20 06:31:52;;;;;;;135.33;122.90;;;5.70;23.70;;;;;;5012048;28;20424;-71
2023/04/20 06:34:18;;;;;;;122.37;110.43;;;5.60;22.90;;;;;;5012516;28;20772;-71
2023/04/20 06:36:43;;;;;;;93.77;66.87;;;5.40;23.30;;;;;;5010614;28;20219;-71
2023/04/20 06:39:12;;;;;;;107.50;96.10;;;5.40;23.50;;;;;;5012146;28;20592;-72
2023/04/20 06:41:38;;;;;;;113.47;102.03;;;5.20;23.50;;;;;;5011545;28;20194;-71
2023/04/20 06:44:04;;;;;;;103.77;92.03;;;5.10;24.30;;;;;;5027390;28;20740;-69
2023/04/20 06:46:30;;;;;;;140.63;127.83;;;5.20;25.00;;;;;;5011980;28;20462;-71
2023/04/20 06:48:56;;;;;;;257.10;238.83;;;5.10;25.00;;;;;;5011813;28;20489;-71
2023/04/20 06:51:26;;;;;;;139.83;126.07;;;5.10;25.00;;;;;;5011663;28;20428;-72
2023/04/20 06:53:52;;;;;;;170.07;156.03;;;5.00;25.10;;;;;;5011711;28;20178;-69
2023/04/20 06:56:17;;;;;;;208.60;192.27;;;4.90;24.70;;;;;;5011662;28;20436;-69
2023/04/20 06:58:43;;;;;;;175.80;160.87;;;4.80;25.10;;;;;;5011566;28;20206;-68
2023/04/20 07:01:08;;;;;;;101.73;90.63;;;4.90;25.60;;;;;;5014140;28;20265;-71
2023/04/20 07:03:34;;;;;;;133.83;121.60;;;5.00;26.10;;;;;;5026713;28;20183;-70
2023/04/20 07:06:00;;;;;;;188.70;173.23;;;5.20;24.40;;;;;;5019268;28;20188;-69
2023/04/20 07:08:25;;;;;;;128.30;116.10;;;5.20;23.60;;;;;;5034551;28;20193;-69
2023/04/20 07:10:51;;;;;;;95.27;70.20;;;5.10;24.40;;;;;;5038363;28;20189;-70
2023/04/20 07:13:16;;;;;;;118.53;106.53;;;5.20;24.40;;;;;;5013503;28;20253;-69
2023/04/20 07:15:44;;;;;;;85.70;60.90;;;5.20;24.20;;;;;;5010936;28;20202;-69
2023/04/20 07:18:10;;;;;;;107.13;95.70;;;5.30;24.50;;;;;;5011625;28;20206;-69
2023/04/20 07:20:35;;;;;;;104.70;92.60;;;5.40;24.50;;;;;;5011388;28;20809;-72
2023/04/20 07:23:01;;;;;;;105.40;93.57;;;5.60;23.90;;;;;;5019876;28;20437;-69
2023/04/20 07:25:26;;;;;;;253.20;235.17;;;5.70;23.40;;;;;;5030851;28;20191;-69
2023/04/20 07:27:52;;;;;;;224.83;206.90;;;5.70;22.50;;;;;;5030872;28;20371;-69
2023/04/20 07:30:18;;;;;;;218.47;201.60;;;5.60;22.20;;;;;;5030889;28;20187;-69
2023/04/20 07:32:43;;;;;;;130.87;118.50;;;5.40;21.80;;;;;;5013103;28;20484;-69
2023/04/20 07:35:09;;;;;;;124.23;112.03;;;5.40;23.20;;;;;;5009396;28;20202;-69
2023/04/20 07:37:35;;;;;;;294.10;273.43;;;5.10;23.90;;;;;;5030308;28;20289;-70
2023/04/20 07:40:01;;;;;;;245.73;229.57;;;5.20;23.60;;;;;;5032618;28;20790;-69
2023/04/20 07:42:27;;;;;;;138.90;126.43;;;5.20;23.90;;;;;;5034764;28;20257;-69
2023/04/20 07:44:53;;;;;;;135.77;123.07;;;5.10;24.10;;;;;;5034827;28;20774;-69
2023/04/20 07:47:19;;;;;;;166.37;152.70;;;4.70;25.20;;;;;;5034654;28;20467;-69
2023/04/20 07:49:44;;;;;;;209.10;193.30;;;4.80;27.00;;;;;;5034148;28;20521;-68
2023/04/20 07:52:11;;;;;;;225.33;209.17;;;4.80;26.90;;;;;;5034951;28;20235;-68
2023/04/20 07:54:37;;;;;;;234.90;218.13;;;4.80;26.80;;;;;;5034750;28;20228;-70
2023/04/20 07:57:02;;;;;;;215.53;199.53;;;4.90;27.40;;;;;;5019880;28;20210;-70
2023/04/20 07:59:28;;;;;;;212.43;196.67;;;4.90;28.10;;;;;;5014916;28;20200;-70
2023/04/20 08:02:01;;;;;;;263.07;242.83;;;4.80;27.70;;;;;;5025549;28;20592;-70
2023/04/20 08:04:27;;;;;;;205.80;190.63;;;4.80;28.30;;;;;;5032585;28;20838;-69
2023/04/20 08:06:53;;;;;;;235.07;217.80;;;4.60;28.10;;;;;;5032458;28;20463;-68
2023/04/20 08:09:19;;;;;;;151.50;138.43;;;4.60;29.40;;;;;;5034336;28;20425;-70
2023/04/20 08:11:45;;;;;;;112.30;100.50;;;4.50;30.80;;;;;;5032991;28;20590;-69
2023/04/20 08:14:11;;;;;;;135.87;123.40;;;4.60;32.10;;;;;;5034526;28;20409;-70
2023/04/20 08:16:36;;;;;;;143.53;131.03;;;4.70;32.70;;;;;;5033234;28;20554;-70
2023/04/20 08:19:08;;;;;;;149.23;136.63;;;4.90;31.90;;;;;;5033438;28;20445;-71
2023/04/20 08:21:37;;;;;;;130.40;118.67;;;5.10;29.90;;;;;;5014219;28;20234;-70
2023/04/20 08:24:04;;;;;;;224.93;209.03;;;5.20;28.50;;;;;;5013297;28;20457;-69
2023/04/20 08:26:30;;;;;;;219.50;202.97;;;5.30;27.70;;;;;;5014062;28;20453;-69
2023/04/20 08:28:56;;;;;;;220.17;203.20;;;5.50;27.10;;;;;;5014001;28;20407;-70
2023/04/20 08:31:22;;;;;;;178.70;164.27;;;5.70;25.20;;;;;;5015910;28;20498;-69
2023/04/20 08:33:48;;;;;;;216.53;200.17;;;5.70;25.20;;;;;;5033474;28;20818;-69
2023/04/20 08:36:14;;;;;;;161.97;148.20;;;5.70;23.70;;;;;;5032290;28;20450;-69
2023/04/20 08:38:39;;;;;;;233.90;216.23;;;5.80;22.60;;;;;;5033671;28;20699;-69
2023/04/20 08:41:12;;;;;;;98.07;87.53;;;6.00;22.80;;;;;;5033606;28;20413;-69
2023/04/20 08:43:40;;;;;;;142.60;129.63;;;6.20;21.60;;;;;;5033363;28;20194;-69
2023/04/20 08:46:07;;;;;;;342.90;318.80;;;6.20;22.20;;;;;;5031595;28;20426;-69
2023/04/20 08:48:37;;;;;;;175.93;161.63;;;6.20;20.90;;;;;;5031414;28;20440;-69
2023/04/20 08:51:04;;;;;;;197.87;182.30;;;6.20;22.20;;;;;;5033358;28;20779;-70
2023/04/20 08:53:31;;;;;;;113.47;102.20;;;6.20;22.20;;;;;;5033341;28;20410;-69
2023/04/20 08:55:57;;;;;;;141.83;129.13;;;6.30;23.00;;;;;;5027726;28;20502;-69
2023/04/20 08:58:27;;;;;;;251.73;233.43;;;6.50;21.60;;;;;;5014257;28;20812;-70
2023/04/20 09:00:53;;;;;;;204.30;188.60;;;6.30;21.00;;;;;;5025646;28;20426;-72
2023/04/20 09:03:30;;;;;;;281.93;262.73;;;;;;;;;;5033110;28;20840;-70
2023/04/20 09:05:59;;;;;;;268.37;248.70;;;;;;;;;;5033534;28;20519;-71
2023/04/20 09:08:35;;;;;;;292.63;272.33;;;;;;;;;;5033460;28;20507;-71
2023/04/20 09:11:01;;;;;;;118.77;106.47;;;;;;;;;;5033315;28;20532;-71
2023/04/20 09:13:28;;;;;;;164.17;150.40;;;;;;;;;;5033049;28;20402;-71
2023/04/20 09:15:57;;;;;;;194.40;179.43;;;;;;;;;;5033041;28;20437;-71
2023/04/20 09:18:23;;;;;;;115.03;103.30;;;;;;;;;;5033415;28;20418;-71
2023/04/20 09:20:50;;;;;;;337.27;314.43;;;;;;;;;;5031529;28;20453;-71
2023/04/20 09:23:17;;;;;;;330.60;308.20;;;;;;;;;;5032513;28;20421;-71
2023/04/20 09:25:45;;;;;;;412.93;384.87;;;;;;;;;;5033032;28;20435;-71
2023/04/20 09:28:12;;;;;;;157.37;144.00;;;;;;;;;;5032668;28;20461;-71
2023/04/20 09:30:38;;;;;;;250.17;232.77;;;;;;;;;;5033292;28;20497;-70
2023/04/20 09:33:04;;;;;;;281.87;261.97;;;;;;;;;;5031315;28;20788;-71
2023/04/20 09:35:30;;;;;;;138.57;125.83;;;;;;;;;;5033062;28;20429;-70
2023/04/20 09:37:56;;;;;;;93.97;75.13;;;;;;;;;;5028561;28;20649;-71
2023/04/20 09:40:24;;;;;;;129.30;116.93;;;;;;;;;;5031151;28;20441;-71
2023/04/20 09:42:51;;;;;;;99.50;88.70;;;;;;;;;;5032684;28;20944;-72
2023/04/20 09:45:18;;;;;;;131.93;119.60;;;;;;;;;;5033068;28;20460;-71
2023/04/20 09:47:44;;;;;;;413.17;385.87;;;;;;;;;;5032436;28;20470;-72
2023/04/20 09:50:10;;;;;;;315.23;293.67;;;6.10;21.70;;;;;;5032679;28;20416;-71
2023/04/20 09:52:41;;;;;;;184.90;169.97;;;7.70;20.60;;;;;;5032277;28;20462;-71
2023/04/20 09:55:09;;;;;;;179.37;164.70;;;7.40;21.70;;;;;;5031126;28;20437;-71
2023/04/20 09:57:35;;;;;;;217.07;201.03;;;7.30;21.60;;;;;;5032090;28;20462;-72
2023/04/20 10:00:04;;;;;;;249.60;231.97;;;7.20;22.90;;;;;;5032286;28;20449;-72
2023/04/20 10:02:30;;;;;;;419.13;392.03;;;7.20;23.60;;;;;;5032027;28;20761;-73
2023/04/20 10:04:57;;;;;;;244.33;226.70;;;7.10;23.10;;;;;;5032236;28;20427;-72
2023/04/20 10:07:27;;;;;;;141.27;128.77;;;7.20;24.20;;;;;;5032083;28;20208;-72
2023/04/20 10:10:04;;;;;;;121.00;109.67;;;7.20;24.20;;;;;;5032008;28;20694;-73
2023/04/20 10:12:30;;;;;;;173.07;159.07;;;7.30;24.60;;;;;;5032059;28;20497;-72
2023/04/20 10:14:56;;;;;;;221.53;205.20;;;7.40;24.00;;;;;;5032221;28;20866;-73
2023/04/20 10:17:29;;;;;;;211.60;196.37;;;7.50;24.60;;;;;;5032405;28;20561;-73
2023/04/20 10:19:55;;;;;;;491.50;460.70;;;7.60;22.60;;;;;;5032095;28;20439;-73
2023/04/20 10:22:31;;;;;;;250.03;232.00;;;7.60;23.80;;;;;;5031489;28;20435;-73
2023/04/20 10:25:00;;;;;;;283.10;263.33;;;7.50;23.70;;;;;;5032283;28;20552;-73
2023/04/20 10:27:26;;;;;;;316.83;294.70;;;7.40;25.10;;;;;;5032130;28;20965;-72
2023/04/20 10:29:51;;;;;;;383.07;358.40;;;7.60;26.00;;;;;;5031037;28;20779;-73
2023/04/20 10:32:28;;;;;;;156.83;143.47;;;7.50;24.80;;;;;;5031369;28;20452;-73
2023/04/20 10:35:07;;;;;;;196.00;181.20;;;7.50;26.40;;;;;;5031501;28;20234;-73
2023/04/20 10:37:34;;;;;;;194.50;179.73;;;7.60;27.40;;;;;;5032385;28;20471;-73
2023/04/20 10:40:00;;;;;;;268.50;249.90;;;7.80;27.30;;;;;;5032439;28;20473;-72
2023/04/20 10:42:28;;;;;;;485.63;455.17;;;7.80;26.10;;;;;;5031597;28;20423;-72
2023/04/20 10:44:54;;;;;;;276.07;257.43;;;7.50;27.70;;;;;;5031692;28;20472;-73
2023/04/20 10:47:30;;;;;;;402.90;377.37;;;7.60;28.00;;;;;;5031656;28;20909;-71
2023/04/20 10:50:15;;;;;;;246.77;229.20;;;7.80;29.60;;;;;;5031703;28;20438;-71
2023/04/20 10:52:43;;;;;;;437.47;410.80;;;8.20;27.70;;;;;;5031549;28;20431;-71
2023/04/20 10:55:19;;;;;;;210.10;194.10;;;8.50;26.50;;;;;;5030354;28;20500;-70
2023/04/20 10:57:45;;;;;;;313.27;292.83;;;8.90;25.60;;;;;;5011987;28;20916;-70
2023/04/20 11:00:16;;;;;;;341.40;319.40;;;9.30;23.80;;;;;;5011823;28;20428;-70
2023/04/20 11:02:49;;;;;;;281.80;262.27;;;9.40;21.60;;;;;;5018705;28;20218;-71
2023/04/20 11:05:19;;;;;;;345.27;323.10;;;9.70;20.70;;;;;;5031622;28;20432;-71
2023/04/20 11:07:58;;;;;;;311.27;290.30;;;9.90;19.00;;;;;;5031477;28;20464;-71
2023/04/20 11:10:38;;;;;;;230.20;213.83;;;10.30;18.50;;;;;;5031607;28;20421;-70
2023/04/20 11:13:04;;;;;;;239.30;222.23;;;10.50;16.70;;;;;;5031548;28;20915;-70
2023/04/20 11:15:30;;;;;;;207.00;191.47;;;10.50;16.90;;;;;;5031627;28;20421;-70
2023/04/20 11:18:09;;;;;;;437.63;410.90;;;10.90;16.80;;;;;;5032953;28;20704;-71
2023/04/20 11:20:35;;;;;;;360.30;337.53;;;11.20;15.20;;;;;;5030477;28;20430;-71
2023/04/20 11:23:03;;;;;;;343.50;319.73;;;11.10;15.20;;;;;;5031506;28;20929;-71
2023/04/20 11:25:29;;;;;;;228.93;212.87;;;10.80;13.20;;;;;;5031442;28;20538;-70
2023/04/20 11:28:06;;;;;;;208.77;193.57;;;10.70;12.70;;;;;;5031489;28;20461;-71
2023/04/20 11:30:42;;;;;;;204.67;189.60;;;11.00;12.70;;;;;;5030189;28;20519;-71
2023/04/20 11:33:08;;;;;;;359.07;335.97;;;10.90;11.10;;;;;;5031108;28;20505;-71
2023/04/20 11:35:38;;;;;;;255.73;237.57;;;10.50;11.80;;;;;;5030138;28;20422;-71
2023/04/20 11:38:04;;;;;;;325.93;304.87;;;10.30;13.30;;;;;;5029876;28;20595;-71
2023/04/20 11:40:30;;;;;;;127.70;116.17;;;10.10;12.20;;;;;;5031244;28;20508;-71
2023/04/20 11:42:57;;;;;;;159.93;146.93;;;10.00;13.40;;;;;;5030711;28;20530;-72
2023/04/20 11:45:22;;;;;;;263.13;245.60;;;9.90;14.70;;;;;;5033114;28;20573;-69
2023/04/20 11:47:48;;;;;;;143.47;131.50;;;9.80;14.20;;;;;;5034638;28;20504;-70
2023/04/20 11:50:13;;;;;;;225.03;209.43;;;9.80;14.50;;;;;;5035230;28;20178;-71
2023/04/20 11:52:39;;;;;;;126.60;115.23;;;9.70;14.60;;;;;;5034569;28;20179;-70
2023/04/20 11:55:05;;;;;;;329.10;307.63;;;9.50;14.20;;;;;;5034991;28;20199;-70
2023/04/20 11:57:31;;;;;;;175.23;161.50;;;9.40;14.40;;;;;;5034262;28;20252;-71
2023/04/20 11:59:57;;;;;;;287.33;268.20;;;9.30;14.70;;;;;;5034565;28;20417;-75
2023/04/20 12:02:22;;;;;;;611.83;569.27;;;9.10;14.30;;;;;;5034393;28;20422;-71
2023/04/20 12:04:48;;;;;;;146.30;133.70;;;8.70;14.00;;;;;;5034607;28;20275;-70
2023/04/20 12:07:14;;;;;;;221.60;205.90;;;8.60;15.40;;;;;;5034236;28;20240;-70
2023/04/20 12:09:40;;;;;;;156.33;143.87;;;8.70;14.50;;;;;;5034433;28;20415;-70
2023/04/20 12:12:07;;;;;;;326.40;305.40;;;8.60;14.50;;;;;;5034251;28;20181;-70
2023/04/20 12:14:33;;;;;;;344.30;318.07;;;8.50;14.10;;;;;;5034199;28;20177;-71
2023/04/20 12:17:00;;;;;;;246.97;228.03;;;8.50;14.70;;;;;;5034952;28;20427;-70
2023/04/20 12:19:25;;;;;;;267.27;249.83;;;8.40;15.30;;;;;;5035325;28;20421;-71
2023/04/20 12:21:51;;;;;;;203.13;187.97;;;8.30;15.70;;;;;;5033665;28;20432;-71